createdAt,value
2022-11-08T00:01:26.640Z,10.92
2022-11-08T00:04:28.290Z,10.95
2022-11-08T00:07:29.952Z,10.77
2022-11-08T00:10:31.551Z,10.72
2022-11-08T00:13:33.089Z,10.81
2022-11-08T00:16:34.784Z,10.73
2022-11-08T00:19:36.310Z,10.70
2022-11-08T00:22:37.877Z,10.69
2022-11-08T00:25:39.404Z,10.61
2022-11-08T00:28:41.004Z,10.60
2022-11-08T00:31:43.656Z,10.52
2022-11-08T00:34:45.887Z,10.48
2022-11-08T00:37:47.418Z,10.51
2022-11-08T00:40:48.968Z,10.60
2022-11-08T00:43:50.498Z,10.43
2022-11-08T00:46:52.846Z,10.40
2022-11-08T00:49:54.372Z,10.34
2022-11-08T00:52:55.872Z,10.18
2022-11-08T00:56:02.405Z,10.18
2022-11-08T00:59:04.082Z,10.11
2022-11-08T01:02:05.697Z,10.14
2022-11-08T01:05:07.602Z,10.11
2022-11-08T01:08:09.986Z,10.10
2022-11-08T01:11:15.530Z,10.08
2022-11-08T01:14:16.951Z,10.03
2022-11-08T01:17:18.397Z,10.06
2022-11-08T01:20:20.017Z,10.12
2022-11-08T01:23:21.447Z,10.05
2022-11-08T01:26:26.289Z,10.00
2022-11-08T01:29:27.705Z,10.02
2022-11-08T01:32:29.160Z,9.97
2022-11-08T01:35:32.212Z,9.92
2022-11-08T01:38:33.983Z,9.89
2022-11-08T01:41:35.403Z,9.76
2022-11-08T01:45:04.708Z,9.70
2022-11-08T01:48:06.289Z,9.56
2022-11-08T01:51:11.667Z,9.57
2022-11-08T01:54:20.376Z,9.53
2022-11-08T01:57:27.905Z,9.58
2022-11-08T02:00:29.829Z,9.53
2022-11-08T02:03:34.358Z,9.60
2022-11-08T02:06:38.639Z,9.62
2022-11-08T02:09:42.278Z,9.55
2022-11-08T02:12:43.791Z,9.59
2022-11-08T02:15:45.372Z,9.57
2022-11-08T02:18:48.597Z,9.59
2022-11-08T02:21:55.879Z,9.52
2022-11-08T02:24:57.623Z,9.43
2022-11-08T02:27:59.019Z,9.42
2022-11-08T02:31:00.434Z,9.36
2022-11-08T02:34:01.917Z,9.31
2022-11-08T02:37:04.304Z,9.26
2022-11-08T02:40:06.383Z,9.27
2022-11-08T02:43:07.769Z,9.20
2022-11-08T02:46:09.574Z,9.08
2022-11-08T02:49:11.008Z,9.06
2022-11-08T02:52:12.717Z,9.17
2022-11-08T02:55:14.181Z,9.12
2022-11-08T02:58:16.309Z,9.09
2022-11-08T03:01:18.096Z,8.98
2022-11-08T03:04:19.557Z,8.96
2022-11-08T03:07:24.821Z,8.94
2022-11-08T03:10:27.821Z,8.93
2022-11-08T03:13:29.276Z,9.06
2022-11-08T03:16:30.699Z,9.04
2022-11-08T03:19:32.144Z,9.05
2022-11-08T03:22:33.565Z,9.09
2022-11-08T03:25:34.986Z,9.03
2022-11-08T03:28:36.442Z,8.97
2022-11-08T03:31:37.859Z,8.98
2022-11-08T03:34:39.350Z,8.94
2022-11-08T03:37:40.851Z,8.93
2022-11-08T03:40:42.691Z,8.88
2022-11-08T03:43:44.088Z,8.89
2022-11-08T03:46:45.467Z,8.90
2022-11-08T03:49:46.894Z,8.85
2022-11-08T03:52:53.213Z,8.93
2022-11-08T03:55:54.868Z,8.81
2022-11-08T03:58:56.330Z,8.85
2022-11-08T04:01:57.858Z,8.97
2022-11-08T04:04:59.374Z,9.12
2022-11-08T04:08:01.538Z,9.24
2022-11-08T04:11:02.942Z,9.17
2022-11-08T04:14:04.385Z,9.17
2022-11-08T04:17:05.810Z,9.19
2022-11-08T04:20:08.661Z,9.32
2022-11-08T04:23:10.077Z,9.27
2022-11-08T04:26:11.702Z,9.27
2022-11-08T04:29:13.199Z,9.26
2022-11-08T04:32:14.608Z,9.23
2022-11-08T04:35:16.020Z,9.21
2022-11-08T04:38:18.416Z,9.18
2022-11-08T04:41:24.614Z,9.13
2022-11-08T04:44:26.009Z,9.10
2022-11-08T04:47:28.057Z,9.02
2022-11-08T04:50:29.509Z,8.91
2022-11-08T04:53:31.119Z,8.95
2022-11-08T04:56:32.880Z,8.99
2022-11-08T04:59:34.313Z,8.99
2022-11-08T05:02:35.842Z,9.06
2022-11-08T05:05:37.328Z,9.12
2022-11-08T05:08:38.968Z,9.12
2022-11-08T05:11:40.396Z,9.12
2022-11-08T05:14:41.824Z,9.16
2022-11-08T05:17:43.241Z,9.29
2022-11-08T05:20:44.674Z,9.32
2022-11-08T05:23:47.543Z,9.38
2022-11-08T05:26:48.969Z,9.25
2022-11-08T05:29:50.363Z,9.19
2022-11-08T05:32:51.815Z,9.12
2022-11-08T05:35:53.283Z,9.00
2022-11-08T05:38:55.454Z,8.93
2022-11-08T05:41:56.882Z,8.94
2022-11-08T05:44:58.309Z,8.93
2022-11-08T05:47:59.708Z,8.97
2022-11-08T05:51:01.636Z,8.98
2022-11-08T05:54:03.088Z,8.93
2022-11-08T05:57:04.500Z,8.93
2022-11-08T06:00:06.552Z,9.04
2022-11-08T06:03:13.057Z,9.10
2022-11-08T06:06:17.794Z,9.11
2022-11-08T06:09:19.256Z,9.07
2022-11-08T06:12:20.709Z,9.09
2022-11-08T06:15:22.122Z,9.14
2022-11-08T06:18:23.534Z,9.20
2022-11-08T06:21:24.941Z,9.18
2022-11-08T06:24:26.378Z,9.19
2022-11-08T06:27:28.102Z,9.17
2022-11-08T06:30:29.703Z,9.21
2022-11-08T06:33:31.903Z,9.20
2022-11-08T06:36:33.326Z,9.20
2022-11-08T06:39:34.760Z,9.24
2022-11-08T06:42:36.156Z,9.21
2022-11-08T06:45:38.257Z,9.31
2022-11-08T06:48:39.660Z,9.28
2022-11-08T06:51:41.086Z,9.47
2022-11-08T06:54:42.491Z,9.43
2022-11-08T06:57:43.913Z,9.50
2022-11-08T07:00:45.325Z,9.47
2022-11-08T07:03:46.866Z,9.38
2022-11-08T07:06:48.325Z,9.42
2022-11-08T07:09:49.743Z,9.44
2022-11-08T07:12:59.777Z,9.45
2022-11-08T07:16:01.892Z,9.46
2022-11-08T07:19:03.337Z,9.44
2022-11-08T07:22:04.780Z,9.61
2022-11-08T07:25:06.859Z,9.68
2022-11-08T07:28:14.150Z,9.74
2022-11-08T07:31:15.749Z,9.80
2022-11-08T07:34:17.152Z,9.94
2022-11-08T07:37:18.597Z,10.08
2022-11-08T07:40:20.464Z,10.18
2022-11-08T07:43:21.984Z,10.24
2022-11-08T07:46:23.679Z,10.27
2022-11-08T07:49:25.101Z,10.37
2022-11-08T07:52:26.745Z,10.47
2022-11-08T07:55:28.180Z,10.62
2022-11-08T07:58:29.563Z,10.68
2022-11-08T08:01:31.021Z,10.79
2022-11-08T08:04:32.602Z,10.79
2022-11-08T08:07:37.698Z,10.86
2022-11-08T08:10:40.150Z,10.86
2022-11-08T08:13:41.592Z,10.89
2022-11-08T08:16:43.021Z,10.95
2022-11-08T08:19:44.464Z,10.97
2022-11-08T08:22:50.736Z,11.05
2022-11-08T08:25:52.590Z,11.09
2022-11-08T08:28:54.285Z,11.08
2022-11-08T08:31:55.886Z,11.16
2022-11-08T08:34:57.426Z,11.24
2022-11-08T08:38:00.024Z,11.21
2022-11-08T08:41:02.114Z,11.27
2022-11-08T08:44:03.692Z,11.35
2022-11-08T08:47:05.120Z,11.37
2022-11-08T08:50:06.861Z,11.31
2022-11-08T08:53:08.316Z,11.22
2022-11-08T08:56:09.869Z,11.22
2022-11-08T09:02:32.694Z,11.31
2022-11-08T09:05:35.013Z,11.36
2022-11-08T09:08:36.474Z,11.42
2022-11-08T09:11:37.996Z,11.39
2022-11-08T09:14:39.445Z,11.44
2022-11-08T09:17:40.878Z,11.48
2022-11-08T09:20:42.338Z,11.61
2022-11-08T09:23:43.751Z,11.79
2022-11-08T09:26:45.305Z,11.85
2022-11-08T09:29:46.720Z,11.84
2022-11-08T09:33:03.942Z,11.88
2022-11-08T09:36:07.686Z,11.76
2022-11-08T09:39:09.097Z,11.79
2022-11-08T09:42:29.029Z,11.91
2022-11-08T09:45:43.219Z,12.02
2022-11-08T09:48:45.513Z,12.06
2022-11-08T09:51:48.842Z,12.03
2022-11-08T09:54:53.871Z,12.04
2022-11-08T09:57:58.244Z,12.14
2022-11-08T10:00:59.908Z,12.16
2022-11-08T10:04:07.981Z,12.09
2022-11-08T10:07:32.330Z,12.02
2022-11-08T10:10:39.697Z,11.91
2022-11-08T10:13:56.865Z,11.92
2022-11-08T10:17:15.031Z,12.00
2022-11-08T10:20:32.704Z,11.93
2022-11-08T10:23:54.716Z,11.87
2022-11-08T10:26:58.876Z,11.93
2022-11-08T10:30:02.045Z,12.00
2022-11-08T10:33:21.952Z,12.06
2022-11-08T10:36:29.411Z,12.07
2022-11-08T10:39:39.025Z,12.14
2022-11-08T10:42:44.996Z,12.21
2022-11-08T10:45:46.440Z,12.32
2022-11-08T10:48:47.946Z,12.34
2022-11-08T10:51:54.694Z,12.45
2022-11-08T10:54:58.554Z,12.62
2022-11-08T10:58:00.338Z,12.78
2022-11-08T11:01:04.766Z,12.92
2022-11-08T11:04:26.358Z,13.00
2022-11-08T11:07:35.823Z,13.08
2022-11-08T11:10:41.395Z,13.22
2022-11-08T11:13:42.803Z,13.17
2022-11-08T11:17:05.351Z,13.30
2022-11-08T11:20:19.050Z,13.44
2022-11-08T11:23:20.550Z,13.63
2022-11-08T11:26:40.904Z,13.48
2022-11-08T11:29:42.345Z,13.35
2022-11-08T11:32:58.139Z,13.46
2022-11-08T11:36:15.379Z,13.43
2022-11-08T11:39:24.911Z,13.26
2022-11-08T11:42:47.009Z,13.41
2022-11-08T11:45:58.356Z,13.53
2022-11-08T11:49:13.125Z,13.68
2022-11-08T11:52:17.465Z,13.74
2022-11-08T11:55:20.138Z,13.76
2022-11-08T11:58:49.423Z,13.97
2022-11-08T12:02:05.843Z,14.13
2022-11-08T12:05:39.535Z,14.22
2022-11-08T12:08:40.898Z,14.38
2022-11-08T12:12:01.383Z,14.39
2022-11-08T12:15:23.195Z,14.33
2022-11-08T12:18:49.435Z,14.43
2022-11-08T12:22:08.271Z,14.37
2022-11-08T12:25:40.480Z,14.18
2022-11-08T12:28:54.171Z,14.04
2022-11-08T12:32:35.403Z,14.20
2022-11-08T12:35:50.571Z,14.24
2022-11-08T12:39:10.281Z,14.24
2022-11-08T12:42:14.696Z,14.23
2022-11-08T12:45:35.097Z,14.28
2022-11-08T12:48:52.581Z,14.26
2022-11-08T12:52:16.082Z,14.21
2022-11-08T12:55:24.369Z,14.08
2022-11-08T12:58:34.580Z,14.08
2022-11-08T13:01:36.823Z,14.12
2022-11-08T13:04:44.088Z,14.14
2022-11-08T13:07:59.047Z,14.22
2022-11-08T13:11:05.688Z,14.19
2022-11-08T13:14:14.270Z,14.11
2022-11-08T13:17:24.608Z,14.16
2022-11-08T13:20:44.238Z,14.20
2022-11-08T13:23:45.716Z,14.04
2022-11-08T13:26:47.253Z,14.13
2022-11-08T13:29:50.087Z,13.95
2022-11-08T13:33:06.853Z,13.99
2022-11-08T13:37:00.971Z,13.97
2022-11-08T13:40:10.810Z,13.91
2022-11-08T13:43:23.609Z,13.79
2022-11-08T13:46:24.972Z,13.79
2022-11-08T13:49:26.442Z,13.80
2022-11-08T13:53:01.142Z,13.66
2022-11-08T13:56:05.708Z,13.65
2022-11-08T13:59:32.186Z,13.71
2022-11-08T14:02:34.233Z,13.67
2022-11-08T14:05:46.447Z,13.61
2022-11-08T14:08:54.559Z,13.62
2022-11-08T14:12:13.422Z,13.56
2022-11-08T14:15:44.691Z,13.54
2022-11-08T14:18:46.111Z,13.53
2022-11-08T14:21:50.512Z,13.50
2022-11-08T14:24:54.443Z,13.52
2022-11-08T14:27:57.095Z,13.57
2022-11-08T14:31:00.325Z,13.71
2022-11-08T14:34:02.098Z,13.69
2022-11-08T14:37:05.936Z,13.84
2022-11-08T14:40:15.745Z,13.93
2022-11-08T14:43:18.362Z,13.79
2022-11-08T14:46:36.283Z,13.59
2022-11-08T14:49:37.682Z,13.57
2022-11-08T14:52:39.182Z,13.58
2022-11-08T14:55:40.726Z,13.65
2022-11-08T14:58:42.791Z,13.63
2022-11-08T15:01:47.645Z,13.62
2022-11-08T15:04:49.857Z,13.60
2022-11-08T15:07:51.444Z,13.55
2022-11-08T15:11:03.163Z,13.40
2022-11-08T15:14:07.998Z,13.31
2022-11-08T15:17:38.951Z,13.25
2022-11-08T15:20:52.451Z,13.19
2022-11-08T15:24:10.662Z,13.13
2022-11-08T15:27:12.036Z,13.09
2022-11-08T15:30:16.389Z,13.06
2022-11-08T15:33:23.360Z,12.95
2022-11-08T15:36:36.498Z,12.84
2022-11-08T15:39:40.835Z,12.87
2022-11-08T15:42:50.980Z,12.87
2022-11-08T15:45:53.460Z,12.80
2022-11-08T15:48:57.168Z,12.70
2022-11-08T15:51:58.604Z,12.61
2022-11-08T15:55:00.044Z,12.54
2022-11-08T15:58:01.569Z,12.47
2022-11-08T16:01:04.780Z,12.35
2022-11-08T16:04:11.608Z,12.37
2022-11-08T16:07:13.109Z,12.25
2022-11-08T16:10:16.862Z,12.13
2022-11-08T16:13:27.650Z,12.03
2022-11-08T16:16:34.049Z,11.92
2022-11-08T16:19:36.403Z,11.93
2022-11-08T16:22:37.787Z,11.84
2022-11-08T16:25:50.238Z,11.82
2022-11-08T16:28:51.692Z,11.76
2022-11-08T16:31:53.125Z,11.76
2022-11-08T16:34:54.525Z,11.60
2022-11-08T16:37:55.949Z,11.67
2022-11-08T16:40:57.359Z,11.77
2022-11-08T16:43:58.794Z,11.69
2022-11-08T16:47:00.196Z,11.71
2022-11-08T16:50:01.649Z,11.75
2022-11-08T16:53:03.051Z,11.63
2022-11-08T16:56:04.552Z,11.58
2022-11-08T16:59:05.985Z,11.58
2022-11-08T17:02:34.512Z,11.61
2022-11-08T17:05:35.919Z,11.56
2022-11-08T17:08:37.348Z,11.45
2022-11-08T17:11:38.992Z,11.45
2022-11-08T17:14:40.378Z,11.41
2022-11-08T17:17:42.616Z,11.40
2022-11-08T17:20:44.089Z,11.34
2022-11-08T17:23:45.540Z,11.28
2022-11-08T17:26:46.980Z,11.31
2022-11-08T17:29:48.639Z,11.20
2022-11-08T17:32:50.232Z,11.24
2022-11-08T17:35:51.685Z,11.27
2022-11-08T17:38:53.126Z,11.18
2022-11-08T17:41:54.535Z,11.21
2022-11-08T17:44:55.967Z,11.23
2022-11-08T17:47:57.394Z,11.40
2022-11-08T17:50:59.669Z,11.57
2022-11-08T17:54:01.082Z,11.76
2022-11-08T17:57:03.982Z,11.96
2022-11-08T18:00:10.680Z,12.02
2022-11-08T18:03:13.972Z,12.02
2022-11-08T18:06:15.401Z,12.01
2022-11-08T18:09:16.997Z,11.97
2022-11-08T18:12:18.472Z,11.90
2022-11-08T18:15:19.888Z,11.85
2022-11-08T18:18:21.385Z,11.76
2022-11-08T18:21:23.114Z,11.78
2022-11-08T18:24:24.516Z,11.79
2022-11-08T18:27:25.936Z,11.76
2022-11-08T18:30:27.432Z,11.80
2022-11-08T18:33:29.212Z,11.73
2022-11-08T18:36:30.861Z,11.78
2022-11-08T18:39:32.272Z,11.85
2022-11-08T18:42:33.748Z,11.97
2022-11-08T18:45:35.262Z,12.03
2022-11-08T18:48:37.316Z,12.15
2022-11-08T18:51:38.812Z,12.13
2022-11-08T18:54:41.393Z,12.17
2022-11-08T18:57:42.925Z,12.20
2022-11-08T19:00:44.351Z,12.16
2022-11-08T19:03:45.849Z,12.26
2022-11-08T19:06:51.621Z,12.23
2022-11-08T19:09:55.968Z,12.22
2022-11-08T19:12:57.651Z,12.41
2022-11-08T19:16:13.717Z,12.51
2022-11-08T19:19:15.132Z,12.51
2022-11-08T19:22:16.564Z,12.50
2022-11-08T19:25:17.982Z,12.48
2022-11-08T19:28:19.414Z,12.43
2022-11-08T19:31:22.921Z,12.49
2022-11-08T19:34:24.324Z,12.39
2022-11-08T19:37:25.719Z,12.51
2022-11-08T19:40:31.967Z,12.34
2022-11-08T19:43:34.668Z,12.29
2022-11-08T19:46:36.203Z,12.24
2022-11-08T19:49:37.647Z,12.19
2022-11-08T19:52:40.072Z,12.02
2022-11-08T19:55:41.500Z,11.98
2022-11-08T19:58:43.532Z,11.77
2022-11-08T20:01:45.105Z,11.84
2022-11-08T20:04:46.603Z,11.78
2022-11-08T20:07:48.055Z,11.67
2022-11-08T20:10:49.478Z,11.68
2022-11-08T20:13:51.396Z,11.67
2022-11-08T20:16:53.770Z,11.75
2022-11-08T20:19:55.365Z,11.79
2022-11-08T20:22:57.302Z,12.09
2022-11-08T20:26:04.377Z,12.09
2022-11-08T20:29:06.284Z,12.27
2022-11-08T20:32:07.762Z,12.38
2022-11-08T20:35:09.641Z,12.43
2022-11-08T20:38:11.154Z,12.47
2022-11-08T20:41:15.289Z,12.52
2022-11-08T20:44:16.616Z,12.42
2022-11-08T20:47:19.126Z,12.18
2022-11-08T20:50:20.611Z,12.12
2022-11-08T20:53:22.018Z,12.12
2022-11-08T20:56:24.727Z,12.28
2022-11-08T20:59:26.441Z,12.29
2022-11-08T21:02:33.083Z,12.16
2022-11-08T21:05:34.685Z,12.17
2022-11-08T21:11:58.634Z,12.21
2022-11-08T21:15:00.037Z,12.16
2022-11-08T21:18:01.485Z,12.11
2022-11-08T21:21:02.830Z,12.14
2022-11-08T21:24:04.413Z,12.19
2022-11-08T21:27:05.853Z,12.10
2022-11-08T21:30:08.013Z,12.06
2022-11-08T21:33:09.450Z,12.01
2022-11-08T21:36:11.173Z,12.00
2022-11-08T21:39:12.748Z,12.03
2022-11-08T21:42:14.275Z,11.93
2022-11-08T21:45:15.862Z,11.89
2022-11-08T21:48:17.643Z,11.93
2022-11-08T21:51:19.389Z,11.91
2022-11-08T21:54:20.878Z,11.91
2022-11-08T21:57:22.330Z,11.91
2022-11-08T22:00:23.759Z,11.91
2022-11-08T22:03:25.193Z,11.91
2022-11-08T22:06:27.889Z,11.97
2022-11-08T22:09:29.544Z,11.82
2022-11-08T22:12:31.231Z,11.98
2022-11-08T22:15:32.691Z,11.88
2022-11-08T22:21:55.564Z,11.93
2022-11-08T22:24:56.999Z,11.92
2022-11-08T22:27:58.433Z,12.01
2022-11-08T22:30:59.860Z,12.04
2022-11-08T22:34:01.430Z,12.03
2022-11-08T22:37:03.003Z,12.01
2022-11-08T22:40:05.304Z,12.00
2022-11-08T22:43:06.970Z,12.00
2022-11-08T22:46:08.425Z,12.11
2022-11-08T22:49:10.804Z,12.20
2022-11-08T22:52:12.274Z,12.26
2022-11-08T22:55:13.702Z,12.33
2022-11-08T22:58:15.135Z,12.38
2022-11-08T23:01:16.620Z,12.34
2022-11-08T23:04:18.027Z,12.34
2022-11-08T23:07:19.512Z,12.38
2022-11-08T23:10:20.968Z,12.49
2022-11-08T23:13:22.429Z,12.53
2022-11-08T23:16:25.098Z,12.56
2022-11-08T23:19:26.568Z,12.54
2022-11-08T23:22:28.009Z,12.55
2022-11-08T23:25:29.568Z,12.60
2022-11-08T23:28:31.037Z,12.60
2022-11-08T23:31:32.531Z,12.50
2022-11-08T23:34:33.940Z,12.30
2022-11-08T23:37:35.386Z,12.21
2022-11-08T23:40:36.840Z,12.20
2022-11-08T23:43:38.234Z,12.27
2022-11-08T23:46:40.278Z,12.46
2022-11-08T23:49:41.672Z,12.55
2022-11-08T23:52:43.063Z,12.58
2022-11-08T23:55:44.572Z,12.67
2022-11-08T23:58:45.976Z,12.66
